Time;durP1;ratioP1;P1;durP2;ratioP2;P2;SDS_P1;SDS_P2;PMS_P1;PMS_P2;Temp;Humidity;BMP_temperature;BMP_pressure;BME280_temperature;BME280_humidity;BME280_pressure;Samples;Min_cycle;Max_cycle;Signal;HPM_P1;HPM_P2
2022/06/19 00:00:38;;;;;;;12.93;2.10;;;19.30;91.90;;;;;;5056007;28;20443;-79
2022/06/19 00:03:07;;;;;;;12.90;2.47;;;19.20;91.70;;;;;;5065328;28;20459;-76
2022/06/19 00:05:33;;;;;;;6.07;2.90;;;19.10;91.60;;;;;;5066274;28;20415;-79
2022/06/19 00:07:59;;;;;;;15.73;2.50;;;19.10;91.90;;;;;;5052414;28;20427;-77
2022/06/19 00:10:24;;;;;;;5.40;1.77;;;19.00;92.30;;;;;;5064624;28;20923;-78
2022/06/19 00:12:50;;;;;;;7.23;2.10;;;18.90;92.30;;;;;;5061723;28;20454;-77
2022/06/19 00:15:16;;;;;;;5.90;2.03;;;18.90;92.50;;;;;;5066889;28;20197;-77
2022/06/19 00:17:43;;;;;;;7.53;2.53;;;18.80;92.80;;;;;;5063492;28;20235;-77
2022/06/19 00:20:11;;;;;;;5.80;2.60;;;18.80;92.90;;;;;;5057446;28;20471;-77
2022/06/19 00:22:37;;;;;;;20.50;2.70;;;18.80;92.60;;;;;;5056260;28;20430;-76
2022/06/19 00:25:04;;;;;;;13.33;2.37;;;18.80;92.70;;;;;;5058993;28;20608;-73
2022/06/19 00:27:30;;;;;;;8.63;3.17;;;18.70;93.10;;;;;;5064913;28;20458;-79
2022/06/19 00:29:56;;;;;;;6.87;2.70;;;18.70;93.30;;;;;;5060507;28;20461;-79
2022/06/19 00:32:21;;;;;;;10.03;3.17;;;18.70;93.40;;;;;;5055096;28;20530;-77
2022/06/19 00:34:47;;;;;;;7.23;2.47;;;18.60;93.40;;;;;;5060967;28;20245;-78
2022/06/19 00:37:13;;;;;;;9.87;2.17;;;18.60;93.60;;;;;;5056038;28;20197;-79
2022/06/19 00:39:42;;;;;;;6.50;1.90;;;18.50;93.80;;;;;;5052755;28;20182;-78
2022/06/19 00:42:14;;;;;;;6.47;2.37;;;18.50;93.90;;;;;;5066912;28;20281;-80
2022/06/19 00:44:40;;;;;;;12.50;3.13;;;18.40;94.40;;;;;;5067101;28;20480;-78
2022/06/19 00:47:29;;;;;;;7.90;2.63;;;18.40;94.50;;;;;;5066898;28;20422;-78
2022/06/19 00:49:59;;;;;;;12.83;2.50;;;18.30;94.60;;;;;;5053835;28;20442;-77
2022/06/19 00:52:38;;;;;;;19.70;1.93;;;18.30;95.00;;;;;;5066768;28;20419;-79
2022/06/19 00:55:20;;;;;;;7.33;2.37;;;18.20;95.30;;;;;;5047193;28;20455;-78
2022/06/19 00:57:54;;;;;;;15.47;2.43;;;18.20;95.60;;;;;;5063432;28;20474;-78
2022/06/19 01:00:26;;;;;;;6.63;2.30;;;18.10;95.80;;;;;;5066925;28;20932;-78
2022/06/19 01:03:11;;;;;;;13.20;3.57;;;18.10;96.10;;;;;;5066503;28;20441;-78
2022/06/19 01:05:40;;;;;;;4.27;1.70;;;18.10;96.30;;;;;;5067069;28;20506;-77
2022/06/19 01:08:06;;;;;;;10.10;2.10;;;18.10;96.20;;;;;;5062821;28;20786;-79
2022/06/19 01:10:36;;;;;;;5.07;2.40;;;18.20;95.50;;;;;;5059624;28;20438;-77
2022/06/19 01:13:02;;;;;;;8.13;2.43;;;18.20;95.40;;;;;;5070023;28;20225;-78
2022/06/19 01:15:28;;;;;;;5.80;2.27;;;18.20;95.20;;;;;;5060922;28;20461;-77
2022/06/19 01:17:59;;;;;;;11.73;2.70;;;18.20;95.30;;;;;;5064369;28;20704;-78
2022/06/19 01:20:27;;;;;;;6.23;2.37;;;18.20;95.30;;;;;;5070695;28;20184;-77
2022/06/19 01:23:15;;;;;;;15.97;2.13;;;18.20;95.50;;;;;;5057273;28;20517;-78
2022/06/19 01:25:43;;;;;;;7.73;2.03;;;18.10;95.70;;;;;;5058700;28;20438;-77
2022/06/19 01:31:07;;;;;;;12.83;2.80;;;18.00;95.90;;;;;;5070102;28;20422;-79
2022/06/19 01:33:45;;;;;;;6.93;2.20;;;18.00;96.20;;;;;;5069679;28;21056;-77
2022/06/19 01:36:13;;;;;;;7.10;2.50;;;18.00;96.50;;;;;;5061400;28;20470;-79
2022/06/19 01:38:39;;;;;;;13.60;2.43;;;17.90;96.40;;;;;;5066821;28;20910;-79
2022/06/19 01:41:12;;;;;;;13.90;2.50;;;17.80;96.60;;;;;;5069517;28;20426;-79
2022/06/19 01:43:38;;;;;;;8.33;2.07;;;17.80;97.00;;;;;;5061932;28;20489;-78
2022/06/19 01:46:05;;;;;;;8.70;2.20;;;17.80;96.60;;;;;;5069499;28;20459;-76
2022/06/19 01:48:33;;;;;;;6.50;2.40;;;17.70;96.90;;;;;;5069263;28;20284;-77
2022/06/19 01:51:02;;;;;;;11.00;2.60;;;17.70;97.00;;;;;;5069295;28;20439;-77
2022/06/19 01:53:38;;;;;;;12.20;3.80;;;17.70;97.00;;;;;;5068016;28;20619;-78
2022/06/19 01:56:08;;;;;;;11.33;2.60;;;17.70;97.10;;;;;;5068976;28;20500;-77
2022/06/19 01:58:38;;;;;;;12.03;2.33;;;17.70;97.20;;;;;;5069836;28;20455;-77
2022/06/19 02:01:06;;;;;;;12.10;2.70;;;17.80;97.00;;;;;;5055718;28;20424;-79
2022/06/19 02:03:36;;;;;;;7.33;2.33;;;17.80;96.70;;;;;;5069092;28;20447;-78
2022/06/19 02:06:03;;;;;;;8.10;1.80;;;17.80;96.80;;;;;;5069633;28;20431;-78
2022/06/19 02:08:32;;;;;;;4.83;2.33;;;17.80;96.80;;;;;;5068307;28;20810;-78
2022/06/19 02:10:59;;;;;;;5.57;2.37;;;17.80;97.00;;;;;;5068432;28;20802;-78
2022/06/19 02:13:25;;;;;;;7.67;2.30;;;17.70;96.90;;;;;;5069057;28;20890;-78
2022/06/19 02:15:52;;;;;;;10.53;2.70;;;17.60;97.20;;;;;;5069614;28;20434;-77
2022/06/19 02:18:23;;;;;;;8.60;2.10;;;17.60;97.40;;;;;;5069377;28;20418;-78
2022/06/19 02:20:53;;;;;;;8.43;2.27;;;17.50;97.60;;;;;;5068003;28;20429;-78
2022/06/19 02:23:28;;;;;;;4.77;1.93;;;17.50;97.40;;;;;;5069089;28;20552;-77
2022/06/19 02:25:54;;;;;;;5.73;2.17;;;17.60;97.00;;;;;;5069500;28;20809;-79
2022/06/19 02:28:20;;;;;;;8.37;2.23;;;17.70;96.90;;;;;;5069089;28;20430;-77
2022/06/19 02:30:47;;;;;;;12.40;2.47;;;17.80;96.90;;;;;;5060248;28;20451;-77
2022/06/19 02:33:16;;;;;;;6.70;3.00;;;17.80;97.10;;;;;;5064156;28;20564;-77
2022/06/19 02:35:42;;;;;;;23.10;2.90;;;17.70;97.20;;;;;;5068723;28;20415;-77
2022/06/19 02:38:08;;;;;;;17.07;2.47;;;17.80;97.00;;;;;;5067449;28;20480;-79
2022/06/19 02:40:46;;;;;;;15.03;2.67;;;17.80;97.00;;;;;;5068723;28;20185;-78
2022/06/19 02:43:26;;;;;;;8.83;1.80;;;17.90;96.40;;;;;;5068525;28;20419;-78
2022/06/19 02:45:52;;;;;;;6.50;2.60;;;18.00;96.10;;;;;;5068748;28;20430;-77
2022/06/19 02:48:24;;;;;;;12.20;2.67;;;18.10;96.10;;;;;;5068819;28;20437;-77
2022/06/19 02:50:51;;;;;;;5.13;2.10;;;18.10;95.70;;;;;;5067363;28;20192;-77
2022/06/19 02:53:17;;;;;;;16.47;2.97;;;18.20;95.30;;;;;;5068670;28;20607;-77
2022/06/19 02:55:43;;;;;;;6.67;1.83;;;18.30;95.20;;;;;;5068936;28;20423;-77
2022/06/19 02:58:09;;;;;;;6.90;1.93;;;18.30;95.00;;;;;;5068575;28;20431;-79
2022/06/19 03:00:35;;;;;;;16.77;2.77;;;18.40;94.90;;;;;;5069223;28;20185;-73
2022/06/19 03:03:07;;;;;;;6.40;1.50;;;18.30;94.50;;;;;;5067669;28;21075;-77
2022/06/19 03:05:33;;;;;;;12.60;3.00;;;18.40;94.60;;;;;;5058120;28;20185;-77
2022/06/19 03:07:59;;;;;;;9.20;2.30;;;18.40;94.20;;;;;;5064587;28;20552;-78
2022/06/19 03:10:25;;;;;;;14.50;2.70;;;18.50;93.80;;;;;;5068307;28;20933;-78
2022/06/19 03:12:51;;;;;;;5.43;2.13;;;18.60;94.10;;;;;;5053911;28;20252;-77
2022/06/19 03:15:17;;;;;;;7.17;2.03;;;18.60;94.10;;;;;;5068376;28;20496;-77
2022/06/19 03:17:43;;;;;;;7.03;1.73;;;18.60;93.60;;;;;;5068261;28;20181;-76
2022/06/19 03:20:14;;;;;;;5.63;2.43;;;18.70;93.90;;;;;;5055387;28;20430;-76
2022/06/19 03:22:39;;;;;;;14.63;3.00;;;18.80;92.60;;;;;;5056879;28;20478;-77
2022/06/19 03:25:06;;;;;;;18.63;2.67;;;18.90;92.50;;;;;;5051733;28;20588;-77
2022/06/19 03:27:31;;;;;;;17.20;3.10;;;18.90;92.50;;;;;;5058733;28;20233;-78
2022/06/19 03:29:57;;;;;;;10.30;2.63;;;19.10;92.40;;;;;;5048169;28;20459;-77
2022/06/19 03:32:23;;;;;;;9.33;3.60;;;19.20;91.60;;;;;;5047428;28;20185;-79
2022/06/19 03:34:48;;;;;;;17.63;2.17;;;19.30;91.60;;;;;;5048011;28;20202;-78
2022/06/19 03:37:14;;;;;;;7.43;2.80;;;19.30;91.90;;;;;;5061819;28;20291;-78
2022/06/19 03:39:39;;;;;;;11.73;2.70;;;19.30;91.70;;;;;;5059321;28;20239;-77
2022/06/19 03:42:06;;;;;;;9.73;3.00;;;19.30;91.90;;;;;;5063622;28;20186;-78
2022/06/19 03:44:32;;;;;;;16.40;2.77;;;19.40;91.70;;;;;;5048516;28;20240;-77
2022/06/19 03:46:58;;;;;;;7.63;2.90;;;19.40;91.70;;;;;;5062719;28;20431;-77
2022/06/19 03:49:24;;;;;;;5.07;2.17;;;19.50;91.00;;;;;;5067133;28;20507;-77
2022/06/19 03:51:49;;;;;;;4.80;2.07;;;19.60;90.80;;;;;;5066863;28;20237;-79
2022/06/19 03:54:15;;;;;;;7.07;2.43;;;19.60;91.50;;;;;;5065991;28;20221;-78
2022/06/19 03:56:41;;;;;;;9.97;2.13;;;19.70;91.80;;;;;;5067621;28;20197;-78
2022/06/19 03:59:09;;;;;;;8.13;2.47;;;19.70;91.30;;;;;;5065714;28;20262;-78
2022/06/19 04:01:37;;;;;;;23.83;2.77;;;19.70;92.10;;;;;;5052796;28;20226;-77
2022/06/19 04:04:04;;;;;;;11.67;2.50;;;19.70;90.80;;;;;;5066779;28;20447;-78
2022/06/19 04:06:33;;;;;;;6.53;2.60;;;19.90;91.00;;;;;;5053006;28;20475;-78
2022/06/19 04:08:59;;;;;;;26.90;2.67;;;19.90;90.80;;;;;;5067359;28;20871;-79
2022/06/19 04:11:27;;;;;;;7.83;2.33;;;20.00;90.70;;;;;;5066883;28;20795;-75
2022/06/19 04:13:53;;;;;;;6.30;2.97;;;20.10;90.20;;;;;;5057897;28;20479;-79
2022/06/19 04:16:26;;;;;;;14.50;2.90;;;20.20;89.60;;;;;;5061923;28;20431;-78
2022/06/19 04:18:53;;;;;;;6.67;2.10;;;20.30;90.30;;;;;;5067210;28;20435;-78
2022/06/19 04:21:24;;;;;;;13.77;2.33;;;20.30;90.50;;;;;;5065600;28;20477;-78
2022/06/19 04:23:54;;;;;;;6.00;1.53;;;20.40;89.00;;;;;;5054043;28;20454;-78
2022/06/19 04:26:20;;;;;;;24.37;2.43;;;20.50;88.60;;;;;;5065805;28;20427;-77
2022/06/19 04:28:46;;;;;;;7.60;1.70;;;20.60;88.80;;;;;;5060946;28;20435;-78
2022/06/19 04:31:11;;;;;;;6.47;2.33;;;20.50;89.80;;;;;;5057301;28;20439;-78
2022/06/19 04:33:40;;;;;;;10.70;2.83;;;20.50;90.30;;;;;;5066357;28;20771;-79
2022/06/19 04:36:09;;;;;;;10.70;2.80;;;20.50;91.00;;;;;;5066777;28;20259;-78
2022/06/19 04:38:36;;;;;;;6.20;2.80;;;20.50;91.10;;;;;;5064200;28;20792;-77
2022/06/19 04:41:01;;;;;;;10.93;2.03;;;20.50;90.70;;;;;;5055620;28;20430;-79
2022/06/19 04:43:27;;;;;;;7.30;2.47;;;20.50;91.10;;;;;;5065910;28;20443;-78
2022/06/19 04:46:01;;;;;;;17.30;3.40;;;20.50;90.20;;;;;;5057933;28;20184;-77
2022/06/19 04:48:27;;;;;;;9.97;2.20;;;20.60;90.10;;;;;;5070645;28;20199;-78
2022/06/19 04:50:53;;;;;;;19.50;3.60;;;20.70;90.10;;;;;;5070164;28;20475;-78
2022/06/19 04:53:19;;;;;;;10.80;2.80;;;20.80;90.00;;;;;;5058014;28;20263;-76
2022/06/19 04:55:44;;;;;;;12.70;2.23;;;20.90;90.10;;;;;;5070688;28;20933;-75
2022/06/19 04:58:10;;;;;;;6.43;2.23;;;20.90;89.70;;;;;;5068952;28;20177;-80
2022/06/19 05:00:36;;;;;;;6.73;1.70;;;20.90;89.20;;;;;;5069415;28;20181;-75
2022/06/19 05:03:01;;;;;;;23.07;2.57;;;21.00;89.40;;;;;;5068230;28;20189;-79
2022/06/19 05:05:27;;;;;;;13.13;2.57;;;21.00;88.70;;;;;;5070516;28;20181;-75
2022/06/19 05:07:52;;;;;;;13.87;3.13;;;21.20;88.10;;;;;;5068854;28;20185;-80
2022/06/19 05:10:18;;;;;;;13.57;3.90;;;21.20;87.70;;;;;;5069102;28;20843;-76
2022/06/19 05:12:44;;;;;;;9.43;2.27;;;21.30;88.20;;;;;;5070051;28;20246;-77
2022/06/19 05:15:10;;;;;;;11.73;3.87;;;21.30;88.20;;;;;;5070214;28;20607;-79
2022/06/19 05:17:36;;;;;;;14.97;2.57;;;21.30;88.70;;;;;;5069891;28;20566;-76
2022/06/19 05:20:03;;;;;;;12.83;2.93;;;21.40;88.70;;;;;;5069730;28;20415;-77
2022/06/19 05:22:28;;;;;;;3.57;1.73;;;21.40;88.40;;;;;;5069880;28;20653;-79
2022/06/19 05:24:54;;;;;;;5.80;2.17;;;21.40;89.30;;;;;;5069933;28;20445;-78
2022/06/19 05:27:20;;;;;;;8.47;3.27;;;21.50;88.70;;;;;;5070236;28;20256;-78
2022/06/19 05:29:45;;;;;;;9.77;2.57;;;21.60;88.80;;;;;;5068539;28;20260;-78
2022/06/19 05:32:11;;;;;;;5.53;2.50;;;21.60;89.00;;;;;;5069836;28;20264;-78
2022/06/19 05:34:37;;;;;;;19.47;4.07;;;21.70;89.00;;;;;;5068406;28;20307;-77
2022/06/19 05:37:03;;;;;;;20.93;2.23;;;21.70;88.50;;;;;;5069581;28;20205;-78
2022/06/19 05:39:30;;;;;;;16.50;2.73;;;21.80;88.60;;;;;;5069782;28;20181;-79
2022/06/19 05:41:57;;;;;;;25.50;2.07;;;21.80;89.10;;;;;;5069902;28;20458;-79
2022/06/19 05:44:24;;;;;;;15.57;3.20;;;22.00;87.90;;;;;;5068250;28;20450;-75
2022/06/19 05:46:51;;;;;;;9.87;2.20;;;22.20;86.50;;;;;;5055813;28;20508;-79
2022/06/19 05:49:17;;;;;;;11.43;3.17;;;22.20;87.00;;;;;;5064547;28;20538;-79
2022/06/19 05:51:43;;;;;;;28.80;3.17;;;22.40;86.00;;;;;;5058768;28;20420;-78
2022/06/19 05:54:08;;;;;;;11.50;3.10;;;22.50;86.70;;;;;;5064200;28;20528;-79
2022/06/19 05:56:34;;;;;;;24.13;3.00;;;22.40;87.10;;;;;;5065879;28;20181;-77
2022/06/19 05:59:00;;;;;;;17.83;2.37;;;22.50;85.60;;;;;;5066865;28;20172;-78
2022/06/19 06:01:30;;;;;;;10.23;2.80;;;22.60;85.70;;;;;;5067351;28;20185;-75
2022/06/19 06:03:57;;;;;;;6.67;2.73;;;22.70;86.60;;;;;;5066738;28;20490;-78
2022/06/19 06:06:25;;;;;;;12.03;2.90;;;22.70;86.10;;;;;;5058944;28;20450;-79
2022/06/19 06:08:52;;;;;;;14.10;2.90;;;22.80;86.30;;;;;;5060490;28;20494;-79
2022/06/19 06:11:18;;;;;;;15.37;3.60;;;22.80;87.30;;;;;;5063169;28;20463;-77
2022/06/19 06:13:44;;;;;;;11.50;2.40;;;22.90;86.60;;;;;;5072144;28;21366;-78
2022/06/19 06:16:19;;;;;;;4.00;2.13;;;23.00;87.20;;;;;;5063893;28;20432;-77
2022/06/19 06:18:45;;;;;;;6.27;2.57;;;23.00;88.30;;;;;;5065015;28;20185;-78
2022/06/19 06:21:17;;;;;;;11.13;3.00;;;23.00;88.60;;;;;;5056856;28;20919;-79
2022/06/19 06:23:43;;;;;;;11.30;2.37;;;23.10;87.20;;;;;;5060868;28;20224;-77
2022/06/19 06:26:18;;;;;;;11.10;2.53;;;23.30;87.20;;;;;;5067691;28;20463;-77
2022/06/19 06:28:46;;;;;;;17.37;3.10;;;23.40;87.20;;;;;;5068842;28;20907;-80
2022/06/19 06:31:13;;;;;;;12.73;3.27;;;23.60;86.90;;;;;;5065341;28;20527;-77
2022/06/19 06:33:39;;;;;;;21.50;3.00;;;23.80;86.50;;;;;;5057678;28;20478;-78
2022/06/19 06:36:06;;;;;;;14.10;3.27;;;24.00;86.80;;;;;;5066900;28;20496;-78
2022/06/19 06:38:32;;;;;;;10.23;2.93;;;24.40;85.10;;;;;;5066507;28;20511;-78
2022/06/19 06:40:58;;;;;;;8.83;2.13;;;24.60;85.10;;;;;;5065495;28;20863;-77
2022/06/19 06:43:24;;;;;;;7.73;2.90;;;24.80;86.20;;;;;;5064880;28;20449;-79
2022/06/19 06:45:50;;;;;;;8.70;2.70;;;24.80;85.20;;;;;;5064033;28;20193;-79
2022/06/19 06:48:17;;;;;;;12.00;2.77;;;24.80;84.20;;;;;;5055378;28;20659;-79
2022/06/19 06:50:43;;;;;;;16.80;2.90;;;24.80;84.00;;;;;;5057563;28;20431;-77
2022/06/19 06:53:10;;;;;;;22.33;4.27;;;24.90;83.30;;;;;;5069572;28;20452;-77
2022/06/19 06:55:40;;;;;;;22.03;3.80;;;25.00;83.00;;;;;;5064307;28;20462;-77
2022/06/19 06:58:06;;;;;;;9.20;3.43;;;25.20;82.20;;;;;;5057508;28;20471;-77
2022/06/19 07:00:32;;;;;;;6.00;2.60;;;25.30;83.20;;;;;;5051692;28;20459;-78
2022/06/19 07:03:01;;;;;;;18.80;3.97;;;25.50;82.60;;;;;;5050147;28;21014;-78
2022/06/19 07:05:27;;;;;;;16.10;3.63;;;25.70;82.80;;;;;;5063155;28;20545;-80
2022/06/19 07:07:53;;;;;;;11.70;3.27;;;25.90;81.80;;;;;;5062352;28;20437;-78
2022/06/19 07:10:20;;;;;;;21.93;4.07;;;26.10;82.30;;;;;;5058738;28;20436;-78
2022/06/19 07:12:46;;;;;;;20.17;3.40;;;26.20;81.80;;;;;;5066716;28;20254;-81
2022/06/19 07:15:12;;;;;;;13.37;3.77;;;26.40;80.20;;;;;;5058522;28;20464;-78
2022/06/19 07:17:38;;;;;;;8.90;3.50;;;26.40;79.40;;;;;;5064239;28;20438;-78
2022/06/19 07:20:05;;;;;;;11.77;3.07;;;26.50;79.40;;;;;;5065065;28;20431;-80
2022/06/19 07:22:31;;;;;;;20.23;4.53;;;26.70;77.50;;;;;;5066631;28;20177;-80
2022/06/19 07:24:56;;;;;;;15.87;3.63;;;27.10;76.80;;;;;;5061161;28;20491;-79
2022/06/19 07:27:22;;;;;;;13.67;3.40;;;27.40;77.20;;;;;;5052246;28;20208;-81
2022/06/19 07:29:48;;;;;;;23.97;4.00;;;27.90;76.90;;;;;;5063589;28;20192;-80
2022/06/19 07:32:14;;;;;;;17.70;3.77;;;28.30;74.20;;;;;;5061579;28;20434;-79
2022/06/19 07:34:41;;;;;;;8.30;3.37;;;28.60;73.00;;;;;;5062159;28;20734;-79
2022/06/19 07:37:07;;;;;;;15.07;4.20;;;28.80;73.20;;;;;;5063155;28;20188;-78
2022/06/19 07:39:36;;;;;;;11.83;3.60;;;29.10;73.50;;;;;;5068054;28;20200;-78
2022/06/19 07:42:04;;;;;;;13.13;2.97;;;29.70;71.70;;;;;;5067698;28;20181;-80
2022/06/19 07:44:29;;;;;;;12.85;5.15;;;30.60;70.60;;;;;;5068302;28;20227;-79
2022/06/19 07:52:23;;;;;;;12.63;3.70;;;32.30;64.40;;;;;;5060730;28;20203;-79
2022/06/19 07:54:49;;;;;;;21.15;4.60;;;32.80;64.20;;;;;;5065858;28;20220;-80
2022/06/19 07:57:15;;;;;;;15.50;4.63;;;33.40;62.20;;;;;;5060201;28;20197;-81
2022/06/19 07:59:41;;;;;;;11.13;4.13;;;33.90;61.00;;;;;;5066224;28;20185;-81
2022/06/19 08:02:07;;;;;;;6.22;3.45;;;33.90;61.90;;;;;;5064196;28;20199;-81
2022/06/19 08:04:32;;;;;;;18.52;5.00;;;34.00;62.80;;;;;;5070821;28;20204;-79
2022/06/19 08:06:58;;;;;;;12.23;4.70;;;34.70;60.10;;;;;;5067339;28;20195;-80
2022/06/19 08:09:24;;;;;;;11.32;4.03;;;34.70;60.00;;;;;;5071678;28;20188;-80
2022/06/19 08:11:50;;;;;;;5.40;3.42;;;35.00;59.80;;;;;;5061695;28;20236;-82
2022/06/19 08:14:15;;;;;;;16.33;4.60;;;35.30;58.80;;;;;;5057756;28;20247;-81
2022/06/19 08:16:41;;;;;;;11.07;4.53;;;35.00;60.10;;;;;;5058962;28;20279;-79
2022/06/19 08:19:07;;;;;;;17.52;4.50;;;35.00;59.70;;;;;;5053925;28;20181;-79
2022/06/19 08:21:32;;;;;;;7.63;3.97;;;35.50;58.00;;;;;;5055725;28;20569;-80
2022/06/19 08:23:58;;;;;;;10.98;4.35;;;35.20;59.40;;;;;;5057561;28;20215;-82
2022/06/19 08:26:24;;;;;;;8.00;4.60;;;35.30;58.80;;;;;;5056607;28;20268;-81
2022/06/19 08:29:01;;;;;;;12.52;4.60;;;35.30;59.30;;;;;;5058294;28;20196;-80
2022/06/19 08:31:29;;;;;;;7.93;3.90;;;35.10;58.80;;;;;;5065894;28;20619;-80
2022/06/19 08:33:55;;;;;;;9.38;4.00;;;35.20;59.60;;;;;;5074951;28;20209;-81
2022/06/19 08:36:24;;;;;;;7.07;4.28;;;35.60;59.60;;;;;;5060060;28;20188;-82
2022/06/19 08:38:54;;;;;;;32.40;5.75;;;35.60;59.80;;;;;;5058230;28;20540;-80
2022/06/19 08:41:44;;;;;;;11.15;4.88;;;35.80;59.20;;;;;;5057861;28;20180;-80
2022/06/19 08:44:25;;;;;;;13.23;7.47;;;36.00;57.10;;;;;;5054614;28;20208;-81
2022/06/19 08:47:18;;;;;;;11.63;6.72;;;36.10;51.70;;;;;;5058784;28;20184;-79
2022/06/19 08:49:52;;;;;;;17.13;6.78;;;35.80;51.00;;;;;;5065862;28;20215;-80
2022/06/19 08:52:55;;;;;;;13.52;6.93;;;35.60;52.60;;;;;;5066691;28;20707;-80
2022/06/19 08:55:24;;;;;;;13.25;5.78;;;35.30;51.00;;;;;;5061569;28;20361;-80
2022/06/19 08:57:58;;;;;;;20.35;7.63;;;35.10;51.80;;;;;;5059862;28;20212;-81
2022/06/19 09:00:49;;;;;;;12.75;6.75;;;34.80;52.50;;;;;;5056166;28;20267;-80
2022/06/19 09:03:26;;;;;;;16.17;6.90;;;34.80;52.20;;;;;;5058712;28;20177;-76
2022/06/19 09:06:01;;;;;;;14.50;6.25;;;35.10;52.80;;;;;;5063092;28;21002;-79
2022/06/19 09:08:45;;;;;;;12.65;6.70;;;35.10;52.40;;;;;;5056469;28;20535;-78
2022/06/19 09:11:23;;;;;;;10.40;6.00;;;34.90;51.50;;;;;;5049236;28;20185;-78
2022/06/19 09:13:54;;;;;;;12.13;6.40;;;34.80;51.00;;;;;;5052581;28;20221;-79
2022/06/19 09:16:35;;;;;;;15.35;6.25;;;35.00;49.90;;;;;;5064795;28;20264;-82
2022/06/19 09:19:06;;;;;;;15.68;6.47;;;34.90;50.10;;;;;;5068518;28;20188;-83
2022/06/19 09:22:00;;;;;;;10.80;5.75;;;34.70;50.30;;;;;;5068599;28;20687;-78
2022/06/19 09:24:39;;;;;;;8.43;4.60;;;35.20;48.70;;;;;;5061028;28;20209;-78
2022/06/19 09:27:06;;;;;;;14.13;5.05;;;35.00;48.40;;;;;;5068105;28;20263;-79
2022/06/19 09:29:35;;;;;;;19.38;5.88;;;34.90;47.10;;;;;;5067073;28;20614;-80
2022/06/19 09:32:27;;;;;;;16.33;5.05;;;34.60;47.00;;;;;;5062910;28;20180;-78
2022/06/19 09:34:58;;;;;;;11.90;5.78;;;34.50;47.40;;;;;;5083184;28;20219;-79
2022/06/19 09:37:50;;;;;;;8.23;4.57;;;34.90;48.30;;;;;;5069366;28;20271;-76
2022/06/19 09:40:36;;;;;;;15.88;4.97;;;35.20;48.00;;;;;;5061583;28;20196;-79
2022/06/19 09:43:45;;;;;;;13.63;5.18;;;35.20;47.10;;;;;;5065307;28;20698;-79
2022/06/19 09:46:18;;;;;;;16.10;5.18;;;35.10;47.50;;;;;;5060945;28;20172;-78
2022/06/19 09:48:52;;;;;;;9.00;5.00;;;35.00;47.70;;;;;;5070256;28;20200;-80
2022/06/19 09:51:24;;;;;;;9.50;4.60;;;35.20;47.90;;;;;;5058739;28;20195;-80
2022/06/19 09:54:06;;;;;;;18.90;4.95;;;35.30;45.90;;;;;;5061690;28;20902;-80
2022/06/19 09:56:46;;;;;;;13.00;4.72;;;35.20;45.70;;;;;;5059985;28;20265;-76
2022/06/19 09:59:18;;;;;;;13.10;5.55;;;35.00;46.70;;;;;;5068914;28;20180;-79
2022/06/19 10:01:55;;;;;;;10.20;5.50;;;35.10;48.20;;;;;;5056970;28;20188;-79
2022/06/19 10:04:34;;;;;;;10.43;5.35;;;35.00;48.20;;;;;;5062220;28;20253;-79
2022/06/19 10:07:07;;;;;;;11.20;6.07;;;35.10;47.90;;;;;;5070450;28;20191;-77
2022/06/19 10:09:53;;;;;;;13.07;5.13;;;35.20;47.80;;;;;;5059156;28;20682;-79
2022/06/19 10:12:28;;;;;;;10.90;5.53;;;35.10;46.90;;;;;;5059896;28;20187;-79
2022/06/19 10:15:01;;;;;;;11.25;3.95;;;35.30;48.00;;;;;;5067888;28;20698;-79
2022/06/19 10:17:53;;;;;;;11.43;4.70;;;35.10;49.40;;;;;;5064619;28;20183;-79
2022/06/19 10:20:37;;;;;;;13.25;5.25;;;35.10;47.00;;;;;;5065257;28;20187;-80
2022/06/19 10:23:17;;;;;;;8.63;4.38;;;34.50;48.10;;;;;;5066519;28;20195;-79
2022/06/19 10:26:15;;;;;;;26.65;4.95;;;34.40;47.80;;;;;;5065506;28;20198;-81
2022/06/19 10:29:16;;;;;;;9.15;4.40;;;34.10;48.80;;;;;;5058205;28;20689;-80
2022/06/19 10:31:49;;;;;;;9.80;4.47;;;34.00;47.60;;;;;;5067161;28;20200;-76
2022/06/19 10:34:46;;;;;;;7.40;3.22;;;33.90;47.80;;;;;;5059392;28;20219;-81
2022/06/19 10:37:39;;;;;;;8.80;4.60;;;33.90;48.10;;;;;;5068372;28;20234;-79
2022/06/19 10:40:42;;;;;;;9.43;3.90;;;33.90;46.90;;;;;;5063858;28;20181;-78
2022/06/19 10:43:34;;;;;;;8.23;4.47;;;33.90;47.00;;;;;;5057008;28;20279;-80
2022/06/19 10:46:06;;;;;;;15.82;4.45;;;33.70;47.30;;;;;;5062003;28;20210;-79
2022/06/19 10:48:55;;;;;;;14.25;4.95;;;33.70;47.60;;;;;;5066495;28;20252;-79
2022/06/19 10:51:33;;;;;;;8.43;3.50;;;33.90;47.40;;;;;;5060043;28;20196;-80
2022/06/19 10:54:01;;;;;;;11.23;3.97;;;33.90;47.60;;;;;;5065265;28;20216;-79
2022/06/19 10:56:39;;;;;;;11.82;3.85;;;34.10;47.90;;;;;;5067749;28;20679;-79
2022/06/19 10:59:06;;;;;;;21.77;4.88;;;34.10;48.60;;;;;;5063567;28;20700;-78
2022/06/19 11:04:37;;;;;;;9.02;3.35;;;34.30;47.10;;;;;;5066967;28;20207;-80
2022/06/19 11:07:16;;;;;;;9.30;4.18;;;34.50;46.30;;;;;;5063917;28;20196;-80
2022/06/19 11:09:47;;;;;;;6.32;3.25;;;34.40;45.20;;;;;;5057192;28;20180;-80
2022/06/19 11:12:33;;;;;;;12.77;3.67;;;34.40;46.40;;;;;;5065752;28;20405;-79
2022/06/19 11:15:03;;;;;;;10.15;4.28;;;34.40;45.70;;;;;;5058882;28;20723;-81
2022/06/19 11:17:31;;;;;;;12.27;3.53;;;34.30;45.70;;;;;;5067709;28;20176;-79
2022/06/19 11:19:57;;;;;;;20.92;3.88;;;34.20;45.10;;;;;;5066534;28;20192;-79
2022/06/19 11:22:25;;;;;;;16.80;5.25;;;34.20;46.10;;;;;;5061164;28;20781;-79
2022/06/19 11:24:53;;;;;;;6.53;4.00;;;34.20;46.40;;;;;;5062492;28;20818;-82
2022/06/19 11:27:23;;;;;;;12.82;3.85;;;34.50;45.80;;;;;;5058352;28;20204;-79
2022/06/19 11:29:51;;;;;;;9.48;3.05;;;34.50;46.30;;;;;;5061176;28;20189;-79
2022/06/19 11:32:25;;;;;;;11.98;3.45;;;34.60;46.00;;;;;;5068015;28;20180;-79
2022/06/19 11:35:09;;;;;;;12.85;4.22;;;34.70;45.80;;;;;;5057414;28;20212;-79
2022/06/19 11:37:51;;;;;;;8.27;3.33;;;34.80;46.10;;;;;;5067047;28;20184;-78
2022/06/19 11:40:27;;;;;;;22.95;4.45;;;34.80;45.60;;;;;;5069055;28;20526;-79
2022/06/19 11:42:59;;;;;;;10.95;3.13;;;34.50;44.20;;;;;;5067728;28;20199;-80
2022/06/19 11:45:36;;;;;;;7.68;3.38;;;34.40;45.00;;;;;;5068797;28;20548;-79
2022/06/19 11:48:07;;;;;;;6.93;2.67;;;34.20;45.00;;;;;;5068667;28;20204;-79
2022/06/19 11:50:32;;;;;;;8.82;3.85;;;34.10;45.00;;;;;;5068701;28;20216;-77
2022/06/19 11:53:08;;;;;;;9.55;3.25;;;34.00;46.80;;;;;;5068469;28;20258;-79
2022/06/19 11:56:12;;;;;;;18.38;3.88;;;34.20;45.70;;;;;;5066909;28;20198;-79
2022/06/19 11:58:45;;;;;;;25.27;3.85;;;34.20;46.40;;;;;;5068168;28;20182;-79
2022/06/19 12:01:15;;;;;;;8.48;3.08;;;34.50;44.90;;;;;;5067127;28;20191;-79
2022/06/19 12:03:53;;;;;;;4.65;2.67;;;34.70;45.30;;;;;;5064582;28;20213;-80
2022/06/19 12:06:36;;;;;;;6.97;3.63;;;34.90;45.20;;;;;;5060024;28;20189;-79
2022/06/19 12:09:06;;;;;;;14.68;3.83;;;34.90;45.00;;;;;;5049499;28;20727;-80
2022/06/19 12:11:42;;;;;;;10.32;3.88;;;35.00;44.20;;;;;;5049379;28;20200;-80
2022/06/19 12:14:10;;;;;;;6.03;3.58;;;35.00;44.00;;;;;;5060474;28;20219;-78
2022/06/19 12:16:37;;;;;;;7.93;3.63;;;35.00;44.80;;;;;;5064949;28;20200;-79
2022/06/19 12:19:33;;;;;;;11.50;4.20;;;35.00;44.30;;;;;;5066442;28;20225;-78
2022/06/19 12:22:04;;;;;;;10.73;3.47;;;34.90;44.20;;;;;;5056672;28;20189;-79
2022/06/19 12:24:46;;;;;;;16.70;3.72;;;34.90;43.40;;;;;;5065254;28;20306;-81
2022/06/19 12:27:17;;;;;;;17.42;3.03;;;34.90;44.60;;;;;;5069449;28;20188;-80
2022/06/19 12:29:47;;;;;;;10.20;4.15;;;35.10;44.70;;;;;;5067557;28;20299;-80
2022/06/19 12:32:32;;;;;;;11.32;4.28;;;35.20;42.90;;;;;;5062956;28;20188;-80
2022/06/19 12:35:05;;;;;;;7.68;3.55;;;35.10;43.10;;;;;;5061221;28;20277;-80
2022/06/19 12:37:32;;;;;;;8.68;3.75;;;35.10;43.50;;;;;;5059964;28;20212;-79
2022/06/19 12:39:57;;;;;;;10.60;3.20;;;35.10;45.60;;;;;;5061462;28;20740;-79
2022/06/19 12:42:29;;;;;;;14.07;3.13;;;35.20;45.60;;;;;;5078976;28;20241;-81
2022/06/19 12:45:22;;;;;;;20.95;3.63;;;35.30;46.30;;;;;;5064136;28;20200;-79
2022/06/19 12:48:26;;;;;;;12.20;3.05;;;35.50;43.00;;;;;;5057618;28;20215;-78
2022/06/19 12:51:05;;;;;;;20.88;3.75;;;35.30;43.40;;;;;;5042740;28;20203;-80
2022/06/19 12:53:39;;;;;;;15.73;3.58;;;35.40;44.40;;;;;;5057702;28;20886;-79
2022/06/19 12:56:36;;;;;;;23.02;3.78;;;35.40;41.40;;;;;;5058996;28;20583;-79
2022/06/19 12:59:17;;;;;;;6.40;2.55;;;35.50;42.60;;;;;;5057388;28;20185;-79
2022/06/19 13:01:42;;;;;;;11.20;3.35;;;35.50;41.40;;;;;;5054030;28;20567;-79
2022/06/19 13:04:17;;;;;;;10.82;3.40;;;35.30;42.40;;;;;;5056660;28;20703;-79
2022/06/19 13:07:07;;;;;;;5.95;2.92;;;35.50;41.60;;;;;;5057135;28;20634;-80
2022/06/19 13:09:44;;;;;;;28.65;3.20;;;35.50;42.50;;;;;;5068304;28;20251;-80
2022/06/19 13:12:23;;;;;;;27.67;3.78;;;35.40;43.40;;;;;;5060339;28;20234;-77